Oologah, Oklahoma
Current Conditions -  °F | °C
As of 10:35 AM on Friday 31 Oct 2014 (Local Time) from KGCM Reporting Station
Clear Clear  
Wind Chill: 37°   Ceiling: Unl
Heat Index: 45°   Visibility: 10mi
Dew Point: 36°   Wind: 17mph
Humidity: 71%   Direction: 20°NNE
Pressure: 30.43"   Gusts: 28mph
Location:  36.45°N, 95.71°W
Report Text: KGCM 311535Z AUTO 02015G24KT 10SM CLR 07/02 A3043 RMK AO2
Loading
Personal Weather Stations






























Interactive Weather Map
Tropical Storm Tracking
New forecast layout! Learn more

10-Day Weather Forecast

Advertisements
Track Severe Weather on mobile